Time;durP1;ratioP1;P1;durP2;ratioP2;P2;SDS_P1;SDS_P2;PMS_P1;PMS_P2;Temp;Humidity;BMP_temperature;BMP_pressure;BME280_temperature;BME280_humidity;BME280_pressure;Samples;Min_cycle;Max_cycle;Signal;HPM_P1;HPM_P2
2022/06/05 00:00:53;;;;;;;;;;;;;;;24.61;62.87;99695.19;2081492;28;19964;-62
2022/06/05 00:02:03;;;;;;;;;;;;;;;24.62;62.91;99698.78;2084358;28;19955;-62
2022/06/05 00:03:16;;;;;;;;;;;;;;;24.61;63.03;99700.69;2078259;28;19912;-62
2022/06/05 00:04:16;;;;;;;;;;;;;;;24.60;62.95;99701.75;2083191;28;20434;-63
2022/06/05 00:05:21;;;;;;;;;;;;;;;24.60;62.99;99702.59;2069128;28;20806;-63
2022/06/05 00:06:31;;;;;;;;;;;;;;;24.59;62.86;99694.50;2071657;28;19956;-62
2022/06/05 00:07:37;;;;;;;;;;;;;;;24.60;62.73;99691.56;2081483;28;19908;-63
2022/06/05 00:08:42;;;;;;;;;;;;;;;24.60;62.95;99690.72;2085488;28;20010;-62
2022/06/05 00:09:54;;;;;;;;;;;;;;;24.59;62.61;99689.84;2076884;28;20169;-62
2022/06/05 00:10:56;;;;;;;;;;;;;;;24.59;62.49;99687.09;2081050;28;20884;-63
2022/06/05 00:12:06;;;;;;;;;;;;;;;24.59;62.62;99684.34;2086702;28;19954;-64
2022/06/05 00:13:14;;;;;;;;;;;;;;;24.60;62.64;99694.34;2079686;28;20371;-63
2022/06/05 00:14:14;;;;;;;;;;;;;;;24.60;62.46;99697.09;2079908;28;20128;-64
2022/06/05 00:15:15;;;;;;;;;;;;;;;24.59;62.39;99684.34;2080506;28;19965;-64
2022/06/05 00:16:17;;;;;;;;;;;;;;;24.60;62.39;99697.09;2089187;28;20036;-64
2022/06/05 00:17:19;;;;;;;;;;;;;;;24.60;62.25;99686.06;2083626;28;19916;-64
2022/06/05 00:18:19;;;;;;;;;;;;;;;24.62;62.31;99693.25;2080502;28;19952;-63
2022/06/05 00:19:19;;;;;;;;;;;;;;;24.60;62.14;99680.56;2085495;28;19916;-63
2022/06/05 00:20:20;;;;;;;;;;;;;;;24.62;62.09;99691.38;2087547;28;19916;-64
2022/06/05 00:21:20;;;;;;;;;;;;;;;24.60;62.27;99690.72;2080813;28;19913;-63
2022/06/05 00:22:20;;;;;;;;;;;;;;;24.60;62.03;99697.09;2083711;28;19911;-64
2022/06/05 00:23:21;;;;;;;;;;;;;;;24.61;62.03;99686.91;2084475;28;19939;-64
2022/06/05 00:24:21;;;;;;;;;;;;;;;24.60;62.15;99687.97;2083766;28;20701;-64
2022/06/05 00:25:22;;;;;;;;;;;;;;;24.60;61.93;99686.06;2081100;28;19974;-64
2022/06/05 00:26:37;;;;;;;;;;;;;;;24.61;61.85;99686.91;2078614;28;19920;-64
2022/06/05 00:27:37;;;;;;;;;;;;;;;24.61;61.83;99681.41;2074845;28;20384;-64
2022/06/05 00:28:42;;;;;;;;;;;;;;;24.60;61.99;99682.47;2083193;28;20440;-64
2022/06/05 00:29:43;;;;;;;;;;;;;;;24.60;62.02;99679.69;2085956;28;20596;-64
2022/06/05 00:30:50;;;;;;;;;;;;;;;24.60;61.92;99690.72;2081023;28;20328;-64
2022/06/05 00:32:05;;;;;;;;;;;;;;;24.59;62.64;99680.75;2076894;28;20046;-64
2022/06/05 00:33:18;;;;;;;;;;;;;;;24.59;62.71;99677.97;2078968;28;19916;-64
2022/06/05 00:34:18;;;;;;;;;;;;;;;24.58;62.75;99682.66;2082385;28;19912;-64
2022/06/05 00:35:21;;;;;;;;;;;;;;;24.58;62.83;99676.28;2078163;28;19921;-64
2022/06/05 00:36:21;;;;;;;;;;;;;;;24.58;62.72;99676.28;2080824;28;19912;-64
2022/06/05 00:37:28;;;;;;;;;;;;;;;24.57;62.84;99677.31;2083835;28;19955;-64
2022/06/05 00:38:29;;;;;;;;;;;;;;;24.58;62.82;99676.28;2087752;28;19920;-64
2022/06/05 00:39:36;;;;;;;;;;;;;;;24.57;63.05;99680.06;2075878;28;19917;-64
2022/06/05 00:40:55;;;;;;;;;;;;;;;24.56;63.02;99673.72;2082899;28;19912;-64
2022/06/05 00:42:02;;;;;;;;;;;;;;;24.57;63.00;99682.81;2081401;28;19909;-64
2022/06/05 00:43:06;;;;;;;;;;;;;;;24.56;63.05;99678.38;2082134;28;20210;-64
2022/06/05 00:44:09;;;;;;;;;;;;;;;24.57;63.02;99680.06;2084166;28;19913;-65
2022/06/05 00:45:11;;;;;;;;;;;;;;;24.57;62.97;99680.94;2076674;28;19913;-65
2022/06/05 00:46:11;;;;;;;;;;;;;;;24.56;63.05;99686.66;2078225;28;20387;-64
2022/06/05 00:47:16;;;;;;;;;;;;;;;24.56;62.96;99678.38;2076833;28;19929;-65
2022/06/05 00:48:17;;;;;;;;;;;;;;;24.57;62.86;99677.31;2087281;28;20144;-64
2022/06/05 00:49:19;;;;;;;;;;;;;;;24.57;62.78;99680.06;2071195;28;19920;-64
2022/06/05 00:50:22;;;;;;;;;;;;;;;24.56;62.67;99667.34;2076248;28;20094;-64
2022/06/05 00:51:22;;;;;;;;;;;;;;;24.57;62.66;99674.56;2086152;28;19915;-64
2022/06/05 00:52:24;;;;;;;;;;;;;;;24.57;62.47;99663.53;2087031;28;19923;-64
2022/06/05 00:53:24;;;;;;;;;;;;;;;24.57;62.50;99674.56;2086454;28;19916;-65
2022/06/05 00:54:25;;;;;;;;;;;;;;;24.57;62.40;99669.06;2083332;28;19915;-67
2022/06/05 00:55:27;;;;;;;;;;;;;;;24.57;62.43;99667.19;2091986;28;19955;-67
2022/06/05 00:56:28;;;;;;;;;;;;;;;24.57;62.27;99675.44;2091964;28;19919;-67
2022/06/05 00:57:30;;;;;;;;;;;;;;;24.56;62.22;99670.97;2091722;28;19924;-67
2022/06/05 00:58:30;;;;;;;;;;;;;;;24.58;62.17;99670.78;2091737;28;19913;-68
2022/06/05 00:59:31;;;;;;;;;;;;;;;24.58;62.15;99679.03;2083618;28;19905;-64
2022/06/05 01:00:37;;;;;;;;;;;;;;;24.58;62.06;99670.78;2087772;28;19986;-65
2022/06/05 01:01:37;;;;;;;;;;;;;;;24.58;62.20;99670.78;2083607;28;19917;-64
2022/06/05 01:02:39;;;;;;;;;;;;;;;24.58;62.09;99668.03;2081727;28;19986;-64
2022/06/05 01:03:39;;;;;;;;;;;;;;;24.58;62.15;99670.78;2081873;28;19962;-65
2022/06/05 01:04:41;;;;;;;;;;;;;;;24.57;62.17;99669.94;2087294;28;20096;-65
2022/06/05 01:05:41;;;;;;;;;;;;;;;24.57;62.11;99669.06;2082379;28;19967;-65
2022/06/05 01:06:41;;;;;;;;;;;;;;;24.58;62.01;99670.78;2077018;28;19921;-65
2022/06/05 01:07:42;;;;;;;;;;;;;;;24.57;62.04;99672.69;2074649;28;19913;-65
2022/06/05 01:08:42;;;;;;;;;;;;;;;24.57;62.02;99674.56;2081816;28;19913;-65
2022/06/05 01:09:44;;;;;;;;;;;;;;;24.57;62.03;99674.56;2080303;28;20407;-64
2022/06/05 01:10:48;;;;;;;;;;;;;;;24.57;62.47;99685.59;2080968;28;20011;-64
2022/06/05 01:12:06;;;;;;;;;;;;;;;24.56;62.45;99683.91;2081141;28;20604;-64
2022/06/05 01:13:14;;;;;;;;;;;;;;;24.57;62.75;99685.59;2087665;28;20075;-64
2022/06/05 01:14:24;;;;;;;;;;;;;;;24.55;62.88;99683.03;2089292;28;19913;-64
2022/06/05 01:15:32;;;;;;;;;;;;;;;24.55;62.83;99688.56;2079563;28;19921;-64
2022/06/05 01:16:39;;;;;;;;;;;;;;;24.54;62.86;99685.97;2078988;28;19917;-65
2022/06/05 01:17:59;;;;;;;;;;;;;;;24.54;62.82;99692.34;2082237;28;19923;-64
2022/06/05 01:19:12;;;;;;;;;;;;;;;24.54;62.90;99697.00;2080379;28;20007;-64
2022/06/05 01:20:30;;;;;;;;;;;;;;;24.52;63.07;99697.22;2080583;28;20491;-65
2022/06/05 01:21:33;;;;;;;;;;;;;;;24.54;62.84;99703.38;2084010;28;20292;-64
2022/06/05 01:22:53;;;;;;;;;;;;;;;24.54;62.76;99703.38;2079877;28;19986;-64
2022/06/05 01:24:19;;;;;;;;;;;;;;;24.53;62.77;99706.34;2075229;28;19913;-65
2022/06/05 01:25:32;;;;;;;;;;;;;;;24.54;62.60;99708.03;2048483;28;20071;-64
2022/06/05 01:26:51;;;;;;;;;;;;;;;24.54;62.46;99706.13;2063125;28;19956;-64
2022/06/05 01:27:55;;;;;;;;;;;;;;;24.53;62.59;99706.34;2073159;28;19963;-65
2022/06/05 01:29:01;;;;;;;;;;;;;;;24.55;62.46;99709.75;2074420;28;19931;-65
2022/06/05 01:30:21;;;;;;;;;;;;;;;24.55;62.39;99704.25;2070281;28;19924;-64
2022/06/05 01:31:31;;;;;;;;;;;;;;;24.55;62.31;99709.75;2069059;28;19928;-64
2022/06/05 01:32:37;;;;;;;;;;;;;;;24.55;62.26;99704.25;2076983;28;19905;-64
2022/06/05 01:33:40;;;;;;;;;;;;;;;24.55;62.21;99704.25;2070145;28;20638;-64
2022/06/05 01:34:41;;;;;;;;;;;;;;;24.56;62.20;99705.94;2064140;28;20151;-65
2022/06/05 01:35:46;;;;;;;;;;;;;;;24.55;62.19;99704.25;2072937;28;20331;-65
2022/06/05 01:36:53;;;;;;;;;;;;;;;24.55;62.22;99705.09;2070125;28;20380;-64
2022/06/05 01:38:03;;;;;;;;;;;;;;;24.55;62.23;99707.84;2071134;28;20306;-64
2022/06/05 01:39:07;;;;;;;;;;;;;;;24.54;61.99;99708.03;2074610;28;19913;-64
2022/06/05 01:40:13;;;;;;;;;;;;;;;24.55;61.97;99704.25;2072789;28;19913;-64
2022/06/05 01:41:30;;;;;;;;;;;;;;;24.55;62.07;99709.75;2077693;28;19920;-64
2022/06/05 01:42:51;;;;;;;;;;;;;;;24.55;61.84;99715.25;2076663;28;19920;-64
2022/06/05 01:43:53;;;;;;;;;;;;;;;24.54;61.83;99713.53;2066286;28;19913;-64
2022/06/05 01:44:59;;;;;;;;;;;;;;;24.54;61.91;99713.53;2067223;28;19935;-64
2022/06/05 01:46:07;;;;;;;;;;;;;;;24.54;61.83;99719.91;2078065;28;20026;-64
2022/06/05 01:47:10;;;;;;;;;;;;;;;24.54;62.21;99716.28;2074080;28;19920;-65
2022/06/05 01:48:23;;;;;;;;;;;;;;;24.54;62.39;99719.03;2079392;28;19924;-64
2022/06/05 01:49:27;;;;;;;;;;;;;;;24.54;62.44;99724.56;2078531;28;19916;-64
2022/06/05 01:50:31;;;;;;;;;;;;;;;24.54;62.68;99724.56;2085443;28;19986;-64
2022/06/05 01:51:40;;;;;;;;;;;;;;;24.52;62.80;99722.03;2071743;28;19925;-64
2022/06/05 01:52:46;;;;;;;;;;;;;;;24.51;62.63;99724.94;2072008;28;19917;-64
2022/06/05 01:53:48;;;;;;;;;;;;;;;24.51;62.92;99720.28;2074553;28;19914;-64
2022/06/05 01:55:04;;;;;;;;;;;;;;;24.51;62.61;99722.19;2076007;28;19970;-64
2022/06/05 01:56:15;;;;;;;;;;;;;;;24.51;62.72;99719.44;2073332;28;20371;-64
2022/06/05 01:57:17;;;;;;;;;;;;;;;24.51;62.69;99719.44;2079168;28;19905;-64
2022/06/05 01:58:19;;;;;;;;;;;;;;;24.50;62.69;99713.09;2080170;28;19916;-64
2022/06/05 01:59:27;;;;;;;;;;;;;;;24.50;62.56;99712.22;2078569;28;20598;-63
2022/06/05 02:00:27;;;;;;;;;;;;;;;24.50;62.72;99710.34;2073506;28;19917;-65
2022/06/05 02:01:32;;;;;;;;;;;;;;;24.51;62.59;99716.69;2076607;28;19913;-64
2022/06/05 02:02:34;;;;;;;;;;;;;;;24.51;62.59;99712.03;2078979;28;19932;-64
2022/06/05 02:03:42;;;;;;;;;;;;;;;24.51;62.67;99711.19;2077261;28;20031;-64
2022/06/05 02:04:52;;;;;;;;;;;;;;;24.50;62.35;99712.22;2079286;28;19908;-63
2022/06/05 02:06:13;;;;;;;;;;;;;;;24.51;62.28;99705.66;2078570;28;19916;-64
2022/06/05 02:07:23;;;;;;;;;;;;;;;24.50;62.41;99713.09;2072284;28;20375;-64
2022/06/05 02:08:37;;;;;;;;;;;;;;;24.50;62.23;99707.56;2076907;28;19917;-64
2022/06/05 02:09:40;;;;;;;;;;;;;;;24.50;62.30;99702.06;2078745;28;19948;-64
2022/06/05 02:10:59;;;;;;;;;;;;;;;24.51;62.11;99708.44;2079037;28;19917;-64
2022/06/05 02:12:01;;;;;;;;;;;;;;;24.51;62.15;99708.44;2078982;28;20004;-65
2022/06/05 02:13:01;;;;;;;;;;;;;;;24.51;62.16;99709.28;2076102;28;20390;-65
2022/06/05 02:14:06;;;;;;;;;;;;;;;24.51;61.99;99714.78;2075774;28;20350;-65
2022/06/05 02:15:07;;;;;;;;;;;;;;;24.52;62.08;99721.13;2077296;28;19917;-64
2022/06/05 02:16:08;;;;;;;;;;;;;;;24.52;61.90;99722.03;2078368;28;19916;-64
2022/06/05 02:17:09;;;;;;;;;;;;;;;24.52;61.92;99715.63;2080219;28;19924;-65
2022/06/05 02:18:11;;;;;;;;;;;;;;;24.52;61.96;99722.03;2072857;28;19956;-65
2022/06/05 02:19:14;;;;;;;;;;;;;;;24.52;61.78;99715.63;2072673;28;19909;-65
2022/06/05 02:20:14;;;;;;;;;;;;;;;24.52;61.85;99715.63;2074729;28;20134;-65
2022/06/05 02:21:15;;;;;;;;;;;;;;;24.52;61.75;99711.00;2068042;28;19923;-65
2022/06/05 02:22:18;;;;;;;;;;;;;;;24.51;61.81;99706.50;2071617;28;19963;-65
2022/06/05 02:23:21;;;;;;;;;;;;;;;24.52;61.68;99712.88;2079354;28;19913;-65
2022/06/05 02:24:21;;;;;;;;;;;;;;;24.51;61.88;99709.28;2077428;28;19921;-65
2022/06/05 02:25:24;;;;;;;;;;;;;;;24.51;62.20;99711.19;2087035;28;19928;-65
2022/06/05 02:26:26;;;;;;;;;;;;;;;24.52;62.52;99718.38;2084374;28;19920;-65
2022/06/05 02:27:27;;;;;;;;;;;;;;;24.50;62.38;99718.59;2080576;28;20583;-65
2022/06/05 02:28:27;;;;;;;;;;;;;;;24.51;62.35;99713.94;2084950;28;20026;-64
2022/06/05 02:29:27;;;;;;;;;;;;;;;24.50;62.55;99723.22;2086771;28;20739;-64
2022/06/05 02:30:32;;;;;;;;;;;;;;;24.50;62.41;99728.75;2082014;28;20306;-65
2022/06/05 02:31:39;;;;;;;;;;;;;;;24.50;62.44;99723.22;2082802;28;20427;-65
2022/06/05 02:32:48;;;;;;;;;;;;;;;24.49;62.48;99727.03;2084941;28;19999;-64
2022/06/05 02:34:02;;;;;;;;;;;;;;;24.49;62.44;99727.91;2088118;28;19916;-64
2022/06/05 02:35:11;;;;;;;;;;;;;;;24.49;62.59;99721.53;2083965;28;20019;-64
2022/06/05 02:36:12;;;;;;;;;;;;;;;24.49;62.56;99727.03;2086279;28;19967;-65
2022/06/05 02:37:32;;;;;;;;;;;;;;;24.48;62.57;99723.44;2087116;28;19924;-64
2022/06/05 02:38:36;;;;;;;;;;;;;;;24.48;62.41;99725.34;2091570;28;19966;-64
2022/06/05 02:39:45;;;;;;;;;;;;;;;24.49;62.49;99721.53;2091931;28;20577;-64
2022/06/05 02:40:49;;;;;;;;;;;;;;;24.49;62.37;99729.81;2087889;28;19923;-64
2022/06/05 02:42:01;;;;;;;;;;;;;;;24.49;62.24;99718.78;2082279;28;19931;-64
2022/06/05 02:43:04;;;;;;;;;;;;;;;24.49;62.11;99716.03;2085271;28;20003;-64
2022/06/05 02:44:29;;;;;;;;;;;;;;;24.49;62.19;99718.78;2086184;28;19920;-64
2022/06/05 02:45:49;;;;;;;;;;;;;;;24.49;62.13;99718.78;2078288;28;19982;-64
2022/06/05 02:47:05;;;;;;;;;;;;;;;24.49;61.89;99716.03;2086335;28;19988;-64
2022/06/05 02:48:05;;;;;;;;;;;;;;;24.49;61.91;99716.03;2082478;28;20079;-64
2022/06/05 02:49:21;;;;;;;;;;;;;;;24.50;61.83;99718.59;2083474;28;19913;-64
2022/06/05 02:50:26;;;;;;;;;;;;;;;24.50;61.97;99714.97;2089906;28;19966;-67
2022/06/05 02:51:30;;;;;;;;;;;;;;;24.50;61.93;99717.72;2099211;28;19912;-68
2022/06/05 02:52:31;;;;;;;;;;;;;;;24.50;61.93;99712.22;2099322;28;19913;-67
2022/06/05 02:53:47;;;;;;;;;;;;;;;24.49;61.82;99710.50;2099323;28;19966;-67
2022/06/05 02:54:50;;;;;;;;;;;;;;;24.50;61.74;99709.44;2099255;28;19916;-67
2022/06/05 02:55:51;;;;;;;;;;;;;;;24.49;61.64;99705.84;2099471;28;19921;-67
2022/06/05 02:56:52;;;;;;;;;;;;;;;24.50;61.83;99712.22;2099109;28;19924;-67
2022/06/05 02:57:52;;;;;;;;;;;;;;;24.50;61.59;99709.44;2098343;28;20012;-68
2022/06/05 02:58:53;;;;;;;;;;;;;;;24.50;61.56;99717.72;2098580;28;20251;-68
2022/06/05 02:59:54;;;;;;;;;;;;;;;24.49;61.75;99716.03;2098454;28;19916;-68
2022/06/05 03:03:32;;;;;;;;;;;;;;;24.49;62.06;99716.03;2099243;28;19913;-67
2022/06/05 03:04:32;;;;;;;;;;;;;;;24.48;62.05;99722.59;2099065;28;19913;-68
2022/06/05 03:05:33;;;;;;;;;;;;;;;24.48;62.14;99714.34;2099198;28;19995;-67
2022/06/05 03:06:35;;;;;;;;;;;;;;;24.48;62.35;99720.69;2098312;28;20322;-67
2022/06/05 03:07:36;;;;;;;;;;;;;;;24.48;62.41;99719.84;2098533;28;19939;-68
2022/06/05 03:08:37;;;;;;;;;;;;;;;24.47;62.20;99712.59;2099317;28;20325;-68
2022/06/05 03:09:37;;;;;;;;;;;;;;;24.47;62.31;99712.59;2099262;28;19923;-67
2022/06/05 03:10:37;;;;;;;;;;;;;;;24.46;62.30;99711.75;2086560;28;20745;-65
2022/06/05 03:11:38;;;;;;;;;;;;;;;24.47;62.25;99707.09;2081416;28;20045;-65
2022/06/05 03:12:38;;;;;;;;;;;;;;;24.47;62.23;99712.59;2084241;28;19966;-65
2022/06/05 03:13:38;;;;;;;;;;;;;;;24.46;62.29;99706.25;2084031;28;19909;-64
2022/06/05 03:14:38;;;;;;;;;;;;;;;24.46;62.20;99710.91;2087123;28;19963;-65
2022/06/05 03:15:41;;;;;;;;;;;;;;;24.47;62.25;99712.59;2084703;28;20380;-65
2022/06/05 03:16:41;;;;;;;;;;;;;;;24.47;62.22;99709.84;2088057;28;19999;-65
2022/06/05 03:17:42;;;;;;;;;;;;;;;24.47;62.27;99715.38;2088028;28;20347;-64
2022/06/05 03:18:43;;;;;;;;;;;;;;;24.46;62.08;99716.41;2084001;28;20069;-64
2022/06/05 03:19:43;;;;;;;;;;;;;;;24.46;62.00;99716.41;2079617;28;19909;-64
2022/06/05 03:20:44;;;;;;;;;;;;;;;24.46;62.11;99714.50;2083772;28;20038;-64
2022/06/05 03:21:45;;;;;;;;;;;;;;;24.47;62.05;99723.63;2089658;28;19923;-64
2022/06/05 03:22:46;;;;;;;;;;;;;;;24.46;62.12;99727.44;2079525;28;19913;-64
2022/06/05 03:23:46;;;;;;;;;;;;;;;24.47;61.88;99718.13;2074181;28;19983;-64
2022/06/05 03:24:47;;;;;;;;;;;;;;;24.45;62.04;99715.53;2087411;28;20418;-64
2022/06/05 03:25:47;;;;;;;;;;;;;;;24.47;61.85;99718.13;2086346;28;19917;-64
2022/06/05 03:26:48;;;;;;;;;;;;;;;24.46;61.78;99717.28;2086770;28;19905;-64
2022/06/05 03:27:48;;;;;;;;;;;;;;;24.47;61.83;99718.97;2086981;28;20400;-64
2022/06/05 03:28:49;;;;;;;;;;;;;;;24.47;61.70;99712.59;2085815;28;19917;-64
2022/06/05 03:29:50;;;;;;;;;;;;;;;24.47;61.91;99715.38;2080047;28;20774;-64
2022/06/05 03:30:50;;;;;;;;;;;;;;;24.46;61.76;99714.50;2087107;28;19924;-65
2022/06/05 03:31:50;;;;;;;;;;;;;;;24.47;61.65;99718.13;2085255;28;20007;-65
2022/06/05 03:32:51;;;;;;;;;;;;;;;24.47;61.76;99712.59;2081644;28;20291;-64
2022/06/05 03:33:51;;;;;;;;;;;;;;;24.47;61.67;99720.88;2079722;28;20344;-64
2022/06/05 03:34:52;;;;;;;;;;;;;;;24.48;61.66;99725.34;2080705;28;19921;-64
2022/06/05 03:35:53;;;;;;;;;;;;;;;24.47;61.54;99724.47;2086374;28;19951;-64
2022/06/05 03:36:53;;;;;;;;;;;;;;;24.47;61.60;99720.88;2086579;28;19916;-64
2022/06/05 03:37:53;;;;;;;;;;;;;;;24.47;61.46;99723.63;2086781;28;19956;-64
2022/06/05 03:38:54;;;;;;;;;;;;;;;24.47;61.52;99726.38;2083928;28;19962;-64
2022/06/05 03:39:54;;;;;;;;;;;;;;;24.48;61.42;99730.88;2087598;28;19942;-64
2022/06/05 03:40:54;;;;;;;;;;;;;;;24.47;61.36;99737.41;2093524;28;19916;-64
2022/06/05 03:41:55;;;;;;;;;;;;;;;24.47;61.46;99734.66;2083693;28;19924;-64
2022/06/05 03:42:55;;;;;;;;;;;;;;;24.47;61.54;99745.66;2082322;28;19925;-65
2022/06/05 03:43:56;;;;;;;;;;;;;;;24.47;61.78;99748.41;2088985;28;20343;-64
2022/06/05 03:44:56;;;;;;;;;;;;;;;24.47;61.83;99759.44;2086080;28;19912;-64
2022/06/05 03:46:10;;;;;;;;;;;;;;;24.47;61.91;99762.19;2086169;28;19920;-64
2022/06/05 03:47:12;;;;;;;;;;;;;;;24.47;61.91;99767.72;2084796;28;19981;-64
2022/06/05 03:48:12;;;;;;;;;;;;;;;24.45;61.90;99756.00;2087902;28;19908;-65
2022/06/05 03:49:13;;;;;;;;;;;;;;;24.46;61.95;99766.88;2090491;28;19916;-64
2022/06/05 03:50:15;;;;;;;;;;;;;;;24.45;62.15;99765.13;2093387;28;19950;-64
2022/06/05 03:51:17;;;;;;;;;;;;;;;24.45;62.09;99764.25;2088504;28;20725;-64
2022/06/05 03:52:18;;;;;;;;;;;;;;;24.44;62.01;99768.91;2087518;28;19916;-64
2022/06/05 03:53:18;;;;;;;;;;;;;;;24.44;62.10;99774.44;2083933;28;20425;-64
2022/06/05 03:54:19;;;;;;;;;;;;;;;24.44;62.07;99773.56;2083183;28;19920;-64
2022/06/05 03:55:20;;;;;;;;;;;;;;;24.44;62.16;99768.06;2087503;28;20350;-64
2022/06/05 03:56:22;;;;;;;;;;;;;;;24.45;62.07;99780.78;2085371;28;19913;-64
2022/06/05 03:57:22;;;;;;;;;;;;;;;24.44;62.07;99779.09;2088548;28;20379;-64
2022/06/05 03:58:23;;;;;;;;;;;;;;;24.43;61.95;99778.25;2082319;28;20377;-65
2022/06/05 03:59:24;;;;;;;;;;;;;;;24.44;61.94;99781.84;2088641;28;20642;-64
2022/06/05 04:00:24;;;;;;;;;;;;;;;24.43;61.87;99783.75;2085196;28;19912;-64
2022/06/05 04:01:25;;;;;;;;;;;;;;;24.42;61.86;99789.44;2084358;28;19920;-64
2022/06/05 04:02:26;;;;;;;;;;;;;;;24.43;61.86;99791.16;2088154;28;19917;-64
2022/06/05 04:03:26;;;;;;;;;;;;;;;24.43;61.89;99788.41;2084683;28;20562;-64
2022/06/05 04:04:26;;;;;;;;;;;;;;;24.43;61.93;99799.44;2085357;28;19905;-65
2022/06/05 04:05:27;;;;;;;;;;;;;;;24.44;61.92;99798.38;2089329;28;19958;-64
2022/06/05 04:06:28;;;;;;;;;;;;;;;24.44;61.92;99798.38;2084153;28;19994;-64
2022/06/05 04:07:28;;;;;;;;;;;;;;;24.43;61.72;99797.53;2088409;28;19908;-64
2022/06/05 04:08:29;;;;;;;;;;;;;;;24.43;61.75;99802.19;2089110;28;19930;-65
2022/06/05 04:09:29;;;;;;;;;;;;;;;24.44;61.95;99795.63;2084695;28;19983;-64
2022/06/05 04:10:30;;;;;;;;;;;;;;;24.44;61.78;99803.88;2087855;28;20431;-64
2022/06/05 04:11:32;;;;;;;;;;;;;;;24.44;61.61;99803.88;2090016;28;19916;-63
2022/06/05 04:12:32;;;;;;;;;;;;;;;24.43;61.58;99807.69;2089543;28;19916;-64
2022/06/05 04:13:33;;;;;;;;;;;;;;;24.44;61.77;99803.88;2089205;28;19948;-64
2022/06/05 04:14:33;;;;;;;;;;;;;;;24.43;61.75;99810.44;2084001;28;19925;-63
2022/06/05 04:15:37;;;;;;;;;;;;;;;24.44;61.79;99820.41;2089675;28;19916;-65
2022/06/05 04:16:39;;;;;;;;;;;;;;;24.44;61.71;99831.44;2082379;28;19913;-65
2022/06/05 04:17:40;;;;;;;;;;;;;;;24.43;61.58;99826.97;2082166;28;19916;-64
2022/06/05 04:18:40;;;;;;;;;;;;;;;24.44;61.72;99839.69;2088335;28;19987;-64
2022/06/05 04:19:41;;;;;;;;;;;;;;;24.43;61.48;99829.75;2085233;28;19921;-64
2022/06/05 04:20:41;;;;;;;;;;;;;;;24.43;61.53;99829.75;2088173;28;20010;-63
2022/06/05 04:21:44;;;;;;;;;;;;;;;24.43;61.67;99829.75;2083973;28;19913;-64
2022/06/05 04:22:44;;;;;;;;;;;;;;;24.43;61.67;99832.50;2084835;28;19924;-64
2022/06/05 04:23:45;;;;;;;;;;;;;;;24.43;61.77;99840.75;2082433;28;19963;-64
2022/06/05 04:24:45;;;;;;;;;;;;;;;24.43;61.80;99838.00;2081218;28;19913;-64
2022/06/05 04:25:46;;;;;;;;;;;;;;;24.42;61.79;99841.78;2082826;28;20144;-64
2022/06/05 04:26:46;;;;;;;;;;;;;;;24.41;61.71;99846.44;2085443;28;20458;-64
2022/06/05 04:27:46;;;;;;;;;;;;;;;24.41;61.70;99846.44;2081845;28;19927;-64
2022/06/05 04:28:47;;;;;;;;;;;;;;;24.40;61.68;99844.75;2087353;28;19909;-64
2022/06/05 04:29:47;;;;;;;;;;;;;;;24.40;61.74;99844.75;2087423;28;20371;-64
2022/06/05 04:30:47;;;;;;;;;;;;;;;24.39;61.72;99846.63;2088657;28;20790;-64
2022/06/05 04:31:49;;;;;;;;;;;;;;;24.39;61.90;99846.63;2087692;28;20624;-64
2022/06/05 04:32:49;;;;;;;;;;;;;;;24.41;61.67;99845.59;2087401;28;19955;-65
2022/06/05 04:33:50;;;;;;;;;;;;;;;24.39;61.67;99852.13;2082094;28;19917;-64
2022/06/05 04:34:51;;;;;;;;;;;;;;;24.38;61.64;99850.44;2088637;28;19920;-65
2022/06/05 04:35:51;;;;;;;;;;;;;;;24.39;61.72;99860.41;2086165;28;19956;-65
2022/06/05 04:36:52;;;;;;;;;;;;;;;24.39;61.58;99854.88;2084590;28;20450;-65
2022/06/05 04:37:52;;;;;;;;;;;;;;;24.39;61.65;99860.41;2081273;28;19917;-65
2022/06/05 04:38:53;;;;;;;;;;;;;;;24.38;61.64;99858.69;2084922;28;19924;-65
2022/06/05 04:39:53;;;;;;;;;;;;;;;24.39;61.52;99865.91;2087242;28;19974;-65
2022/06/05 04:40:53;;;;;;;;;;;;;;;24.38;61.45;99866.97;2089769;28;19916;-64
2022/06/05 04:41:54;;;;;;;;;;;;;;;24.38;61.63;99864.22;2084407;28;19963;-65
2022/06/05 04:42:54;;;;;;;;;;;;;;;24.39;61.50;99868.66;2089238;28;19922;-64
2022/06/05 04:43:55;;;;;;;;;;;;;;;24.38;61.63;99869.72;2087765;28;19951;-64
2022/06/05 04:44:55;;;;;;;;;;;;;;;24.38;61.44;99869.72;2088155;28;19955;-65
2022/06/05 04:45:55;;;;;;;;;;;;;;;24.38;61.46;99866.97;2085019;28;19917;-64
2022/06/05 04:46:56;;;;;;;;;;;;;;;24.39;61.47;99865.91;2082358;28;20422;-64
2022/06/05 04:47:56;;;;;;;;;;;;;;;24.39;61.42;99874.19;2089116;28;19904;-64
2022/06/05 04:48:57;;;;;;;;;;;;;;;24.39;61.36;99876.94;2087856;28;19935;-64
2022/06/05 04:49:57;;;;;;;;;;;;;;;24.40;61.41;99872.31;2088074;28;19948;-64
2022/06/05 04:50:59;;;;;;;;;;;;;;;24.41;61.39;99876.75;2091838;28;19939;-62
2022/06/05 04:51:59;;;;;;;;;;;;;;;24.39;61.34;99871.41;2091554;28;19913;-63
2022/06/05 04:52:59;;;;;;;;;;;;;;;24.39;61.28;99879.69;2086664;28;19915;-62
2022/06/05 04:54:01;;;;;;;;;;;;;;;24.39;61.32;99882.44;2078626;28;19909;-64
2022/06/05 04:55:02;;;;;;;;;;;;;;;24.39;61.29;99882.44;2083132;28;19935;-63
2022/06/05 04:56:06;;;;;;;;;;;;;;;24.40;61.25;99872.31;2084125;28;19916;-64
2022/06/05 04:57:07;;;;;;;;;;;;;;;24.38;61.22;99878.00;2081700;28;19916;-64
2022/06/05 04:58:07;;;;;;;;;;;;;;;24.39;61.43;99878.84;2081589;28;19921;-64
2022/06/05 04:59:08;;;;;;;;;;;;;;;24.38;61.28;99883.50;2081340;28;19931;-63
2022/06/05 05:00:09;;;;;;;;;;;;;;;24.39;61.38;99884.34;2081405;28;19917;-63
2022/06/05 05:01:14;;;;;;;;;;;;;;;24.38;61.21;99880.75;2078764;28;19923;-64
2022/06/05 05:02:14;;;;;;;;;;;;;;;24.38;61.18;99883.50;2081249;28;19917;-64
2022/06/05 05:03:15;;;;;;;;;;;;;;;24.38;61.21;99889.00;2086850;28;19917;-64
2022/06/05 05:04:15;;;;;;;;;;;;;;;24.38;61.33;99882.66;2081202;28;19913;-64
2022/06/05 05:05:16;;;;;;;;;;;;;;;24.38;61.39;99885.41;2077419;28;19952;-67
2022/06/05 05:06:16;;;;;;;;;;;;;;;24.37;61.22;99883.66;2091312;28;19917;-68
2022/06/05 05:07:17;;;;;;;;;;;;;;;24.37;61.23;99890.03;2091986;28;19913;-67
2022/06/05 05:08:18;;;;;;;;;;;;;;;24.37;61.33;99884.53;2092072;28;19917;-68
2022/06/05 05:09:18;;;;;;;;;;;;;;;24.37;61.38;99887.28;2092111;28;19920;-67
2022/06/05 05:10:19;;;;;;;;;;;;;;;24.37;61.26;99890.03;2094129;28;19916;-68
2022/06/05 05:11:20;;;;;;;;;;;;;;;24.37;61.35;99886.44;2099916;28;20018;-68
2022/06/05 05:12:20;;;;;;;;;;;;;;;24.36;61.30;99893.84;2100341;28;19920;-68
2022/06/05 05:13:21;;;;;;;;;;;;;;;24.36;61.32;99888.34;2100533;28;19920;-67
2022/06/05 05:14:21;;;;;;;;;;;;;;;24.36;61.32;99893.00;2100371;28;20006;-67
2022/06/05 05:15:21;;;;;;;;;;;;;;;24.37;61.26;99892.78;2100351;28;19916;-67
2022/06/05 05:16:23;;;;;;;;;;;;;;;24.36;61.23;99899.34;2100329;28;19912;-68
2022/06/05 05:17:23;;;;;;;;;;;;;;;24.36;61.14;99899.34;2100310;28;20275;-68
2022/06/05 05:18:24;;;;;;;;;;;;;;;24.36;61.12;99896.59;2100155;28;19970;-68
2022/06/05 05:19:24;;;;;;;;;;;;;;;24.36;61.22;99907.63;2100435;28;20286;-68
2022/06/05 05:20:25;;;;;;;;;;;;;;;24.37;61.13;99911.22;2100268;28;19913;-67
2022/06/05 05:21:26;;;;;;;;;;;;;;;24.37;61.08;99906.56;2100113;28;19909;-68
2022/06/05 05:22:26;;;;;;;;;;;;;;;24.37;61.05;99905.72;2100232;28;19961;-68
2022/06/05 05:23:26;;;;;;;;;;;;;;;24.38;60.99;99912.94;2100325;28;20365;-67
2022/06/05 05:24:27;;;;;;;;;;;;;;;24.37;61.03;99911.22;2100323;28;20283;-68
2022/06/05 05:25:27;;;;;;;;;;;;;;;24.36;61.07;99910.38;2099443;28;19920;-67
2022/06/05 05:26:29;;;;;;;;;;;;;;;24.37;61.17;99912.06;2099723;28;20374;-67
2022/06/05 05:27:29;;;;;;;;;;;;;;;24.37;61.07;99917.56;2099711;28;19912;-67
2022/06/05 05:28:30;;;;;;;;;;;;;;;24.36;61.22;99915.88;2099659;28;19958;-67
2022/06/05 05:29:30;;;;;;;;;;;;;;;24.38;61.02;99913.81;2100244;28;20406;-67
2022/06/05 05:30:30;;;;;;;;;;;;;;;24.37;60.99;99925.84;2100253;28;20311;-67
2022/06/05 05:31:32;;;;;;;;;;;;;;;24.37;60.98;99916.72;2100267;28;19923;-68
2022/06/05 05:32:33;;;;;;;;;;;;;;;24.37;60.93;99916.72;2100486;28;20302;-67
2022/06/05 05:33:33;;;;;;;;;;;;;;;24.37;61.07;99923.09;2099590;28;19912;-67